Time;durP1;ratioP1;P1;durP2;ratioP2;P2;SDS_P1;SDS_P2;PMS_P1;PMS_P2;Temp;Humidity;BMP_temperature;BMP_pressure;BME280_temperature;BME280_humidity;BME280_pressure;Samples;Min_cycle;Max_cycle;Signal;HPM_P1;HPM_P2
2023/02/09 00:00:00;;;;;;;0.95;0.95;;;-0.80;99.90;;;;;;5052295;28;20382;-72
2023/02/09 00:02:26;;;;;;;7.53;2.42;;;-0.80;99.90;;;;;;5054359;28;20119;-72
2023/02/09 00:04:51;;;;;;;2.17;2.08;;;-0.90;99.90;;;;;;5053771;28;20029;-72
2023/02/09 00:07:17;;;;;;;1.73;1.63;;;-0.90;99.90;;;;;;5053451;28;20100;-72
2023/02/09 00:09:44;;;;;;;0.52;0.52;;;-0.90;99.90;;;;;;5054165;28;20403;-72
2023/02/09 00:14:53;;;;;;;1.33;1.25;;;-0.90;99.90;;;;;;5053904;28;20497;-72
2023/02/09 00:17:19;;;;;;;12.18;4.82;;;-0.90;99.90;;;;;;5053844;28;20025;-72
2023/02/09 00:19:44;;;;;;;16.00;4.43;;;-0.90;99.90;;;;;;5053714;28;20017;-73
2023/02/09 00:22:10;;;;;;;10.07;3.80;;;-0.80;99.90;;;;;;5054024;28;20032;-73
2023/02/09 00:24:35;;;;;;;0.35;0.35;;;-0.90;99.90;;;;;;5053751;28;20017;-73
2023/02/09 00:27:01;;;;;;;6.18;2.28;;;-0.90;99.90;;;;;;5053721;28;20049;-73
2023/02/09 00:29:27;;;;;;;0.60;0.60;;;-0.90;99.90;;;;;;5053836;28;20122;-73
2023/02/09 00:31:52;;;;;;;3.40;3.15;;;-0.90;99.90;;;;;;5053500;28;20040;-72
2023/02/09 00:34:18;;;;;;;3.22;2.53;;;-0.90;99.90;;;;;;5053377;28;20494;-72
2023/02/09 00:36:44;;;;;;;0.30;0.30;;;-0.90;99.90;;;;;;5053508;28;20021;-72
2023/02/09 00:39:09;;;;;;;0.85;0.85;;;-0.90;99.90;;;;;;5053354;28;20431;-72
2023/02/09 00:44:19;;;;;;;1.40;1.30;;;-1.00;99.90;;;;;;5053136;28;20493;-73
2023/02/09 00:46:45;;;;;;;2.25;1.08;;;-1.00;99.90;;;;;;5053694;28;20103;-73
2023/02/09 00:49:10;;;;;;;9.30;2.72;;;-1.10;99.90;;;;;;5053189;28;20060;-73
2023/02/09 00:51:36;;;;;;;0.20;0.20;;;-1.10;99.90;;;;;;5053121;28;20040;-73
2023/02/09 00:54:02;;;;;;;0.52;0.52;;;-1.20;99.90;;;;;;5053252;28;20310;-73
2023/02/09 00:56:28;;;;;;;1.55;0.40;;;-1.20;99.90;;;;;;5073453;28;20020;-73
2023/02/09 00:58:53;;;;;;;0.30;0.30;;;-1.20;99.90;;;;;;5072835;28;20043;-73
2023/02/09 01:01:19;;;;;;;0.30;0.30;;;-1.20;99.90;;;;;;5071893;28;20021;-73
2023/02/09 01:03:45;;;;;;;0.20;0.20;;;-1.10;99.90;;;;;;5073171;28;20036;-73
2023/02/09 01:06:10;;;;;;;0.40;0.40;;;-1.20;99.90;;;;;;5067105;28;20021;-73
2023/02/09 01:08:37;;;;;;;1.83;1.70;;;-1.00;99.90;;;;;;5052741;28;20099;-73
2023/02/09 01:11:08;;;;;;;3.72;2.75;;;-1.00;99.90;;;;;;5073094;28;20060;-73
2023/02/09 01:13:33;;;;;;;0.25;0.25;;;-1.00;99.90;;;;;;5072899;28;20074;-73
2023/02/09 01:15:59;;;;;;;3.28;3.08;;;-1.00;99.90;;;;;;5073165;28;20433;-73
2023/02/09 01:18:24;;;;;;;1.00;1.00;;;-1.10;99.90;;;;;;5072905;28;20391;-73
2023/02/09 01:20:50;;;;;;;7.00;1.42;;;-1.00;99.90;;;;;;5072984;28;20050;-73
2023/02/09 01:23:15;;;;;;;0.63;0.63;;;-1.00;99.90;;;;;;5072915;28;20063;-73
2023/02/09 01:25:41;;;;;;;1.27;1.23;;;-1.00;99.90;;;;;;5064046;28;20025;-73
2023/02/09 01:28:07;;;;;;;0.22;0.22;;;-1.00;99.90;;;;;;5052497;28;20029;-73
2023/02/09 01:30:33;;;;;;;0.20;0.20;;;-1.00;99.90;;;;;;5052776;28;20079;-73
2023/02/09 01:32:58;;;;;;;3.92;3.70;;;-0.90;99.90;;;;;;5052948;28;20037;-73
2023/02/09 01:35:24;;;;;;;0.50;0.50;;;-1.00;99.90;;;;;;5052598;28;20479;-73
2023/02/09 01:37:49;;;;;;;2.70;2.33;;;-1.00;99.90;;;;;;5052645;28;20033;-73
2023/02/09 01:40:15;;;;;;;0.50;0.50;;;-1.00;99.90;;;;;;5052648;28;20021;-73
2023/02/09 01:42:40;;;;;;;20.17;4.32;;;-0.90;99.90;;;;;;5052799;28;20056;-73
2023/02/09 01:45:34;;;;;;;2.50;1.88;;;-0.80;99.90;;;;;;5051397;28;20025;-73
2023/02/09 01:48:02;;;;;;;7.93;2.95;;;-0.80;99.90;;;;;;5047647;28;20041;-73
2023/02/09 01:50:32;;;;;;;0.20;0.20;;;-0.80;99.90;;;;;;5052534;28;20032;-72
2023/02/09 01:52:59;;;;;;;1.35;0.73;;;-0.80;99.90;;;;;;5032814;28;20495;-72
2023/02/09 01:55:28;;;;;;;1.45;0.85;;;-0.80;99.90;;;;;;5041675;28;20025;-72
2023/02/09 01:58:04;;;;;;;0.85;0.85;;;-0.80;99.90;;;;;;5059832;28;20091;-73
2023/02/09 02:00:30;;;;;;;7.07;2.92;;;-0.90;99.90;;;;;;5066254;28;20032;-73
2023/02/09 02:03:00;;;;;;;16.63;6.10;;;-0.90;99.90;;;;;;5072314;28;20024;-73
2023/02/09 02:05:27;;;;;;;0.30;0.30;;;-0.90;99.90;;;;;;5071639;28;20028;-73
2023/02/09 02:08:18;;;;;;;2.20;1.75;;;-1.00;99.90;;;;;;5052645;28;20042;-73
2023/02/09 02:10:44;;;;;;;1.85;1.30;;;-0.90;99.90;;;;;;5052162;28;20051;-73
2023/02/09 02:13:10;;;;;;;1.35;1.30;;;-0.90;99.90;;;;;;5051127;28;20033;-73
2023/02/09 02:16:07;;;;;;;2.95;1.85;;;-0.90;99.90;;;;;;5064548;28;20389;-73
2023/02/09 02:18:54;;;;;;;3.17;2.97;;;-0.80;99.90;;;;;;5033212;28;20029;-73
2023/02/09 02:21:40;;;;;;;0.47;0.47;;;-0.80;99.90;;;;;;5035165;28;20036;-73
2023/02/09 02:24:23;;;;;;;8.55;1.20;;;-0.80;99.90;;;;;;5036415;28;20037;-73
2023/02/09 02:27:09;;;;;;;0.88;0.82;;;-0.80;99.90;;;;;;5036518;28;20025;-73
2023/02/09 02:30:04;;;;;;;0.30;0.30;;;-0.80;99.90;;;;;;5035551;28;20037;-73
2023/02/09 02:32:59;;;;;;;6.07;0.63;;;-0.80;99.90;;;;;;5034910;28;20498;-72
2023/02/09 02:35:36;;;;;;;8.63;4.57;;;-0.80;99.90;;;;;;5036163;28;20021;-72
2023/02/09 02:38:18;;;;;;;8.63;3.53;;;-0.80;99.90;;;;;;5036145;28;20387;-72
2023/02/09 02:41:00;;;;;;;2.50;1.05;;;-0.70;99.90;;;;;;5039397;28;20048;-72
2023/02/09 02:43:49;;;;;;;4.53;4.13;;;-0.70;99.90;;;;;;5056116;28;20056;-72
2023/02/09 02:46:42;;;;;;;8.65;5.35;;;-0.70;99.90;;;;;;5055744;28;20021;-73
2023/02/09 02:49:15;;;;;;;4.80;1.33;;;-0.70;99.90;;;;;;5055872;28;20033;-73
2023/02/09 02:51:47;;;;;;;1.08;1.00;;;-0.70;99.90;;;;;;5055739;28;20091;-72
2023/02/09 02:54:18;;;;;;;5.68;1.95;;;-0.70;99.90;;;;;;5054209;28;20033;-72
2023/02/09 02:56:49;;;;;;;0.35;0.35;;;-0.70;99.90;;;;;;5054849;28;20072;-72
2023/02/09 02:59:20;;;;;;;2.88;1.40;;;-0.70;99.90;;;;;;5067445;22;20042;-69
2023/02/09 03:01:57;;;;;;;1.75;1.65;;;-0.70;99.90;;;;;;5035975;28;20065;-69
2023/02/09 03:04:26;;;;;;;3.78;2.88;;;-0.70;99.90;;;;;;5035906;28;20063;-69
2023/02/09 03:06:52;;;;;;;0.82;0.73;;;-0.70;99.90;;;;;;5035279;28;20068;-69
2023/02/09 03:09:18;;;;;;;1.88;1.75;;;-0.70;99.90;;;;;;5035430;28;20068;-68
2023/02/09 03:11:46;;;;;;;0.30;0.30;;;-0.70;99.90;;;;;;5035417;28;20026;-68
2023/02/09 03:14:31;;;;;;;14.20;5.07;;;-0.70;99.90;;;;;;5035413;28;20060;-68
2023/02/09 03:17:03;;;;;;;1.23;1.23;;;-0.70;99.90;;;;;;5035665;28;20022;-68
2023/02/09 03:19:37;;;;;;;12.05;6.03;;;-0.70;99.90;;;;;;5035339;28;20029;-68
2023/02/09 03:22:30;;;;;;;5.72;1.67;;;-0.70;99.90;;;;;;5035249;28;20018;-68
2023/02/09 03:25:08;;;;;;;0.75;0.75;;;-0.80;99.90;;;;;;5035153;28;20456;-68
2023/02/09 03:27:54;;;;;;;6.00;3.97;;;-0.70;99.90;;;;;;5035220;28;20029;-68
2023/02/09 03:30:21;;;;;;;4.80;2.30;;;-0.60;99.90;;;;;;5035128;28;20505;-68
2023/02/09 03:32:47;;;;;;;6.43;2.95;;;-0.60;99.90;;;;;;5034735;28;20109;-68
2023/02/09 03:35:18;;;;;;;5.60;2.92;;;-0.60;99.90;;;;;;5033762;28;20045;-68
2023/02/09 03:37:43;;;;;;;1.40;1.15;;;-0.60;99.90;;;;;;5035251;28;20034;-68
2023/02/09 03:40:09;;;;;;;0.20;0.20;;;-0.60;99.90;;;;;;5034801;28;20032;-68
2023/02/09 03:42:35;;;;;;;1.20;1.13;;;-0.60;99.90;;;;;;5034769;28;20032;-68
2023/02/09 03:45:00;;;;;;;53.95;5.15;;;-0.60;99.90;;;;;;5034707;28;20433;-68
2023/02/09 03:47:29;;;;;;;4.78;3.58;;;-0.60;99.90;;;;;;5034667;28;20055;-68
2023/02/09 03:49:56;;;;;;;1.13;1.13;;;-0.50;99.90;;;;;;5034700;28;20426;-68
2023/02/09 03:52:22;;;;;;;2.55;1.85;;;-0.50;99.90;;;;;;5034861;28;20029;-68
2023/02/09 03:54:48;;;;;;;0.20;0.20;;;-0.50;99.90;;;;;;5034671;28;20067;-68
2023/02/09 03:57:13;;;;;;;0.52;0.35;;;-0.50;99.90;;;;;;5034590;28;20088;-68
2023/02/09 03:59:39;;;;;;;4.10;1.15;;;-0.50;99.90;;;;;;5034290;28;20479;-68
2023/02/09 04:02:06;;;;;;;7.22;2.17;;;-0.50;99.90;;;;;;5034747;28;20029;-68
2023/02/09 04:04:32;;;;;;;0.20;0.20;;;-0.60;99.90;;;;;;5034710;28;20491;-68
2023/02/09 04:06:58;;;;;;;10.35;4.32;;;-0.50;99.90;;;;;;5034385;28;20040;-68
2023/02/09 04:09:25;;;;;;;3.40;2.58;;;-0.50;99.90;;;;;;5034394;28;20395;-68
2023/02/09 04:11:50;;;;;;;1.73;0.75;;;-0.50;99.90;;;;;;5034247;28;20037;-68
2023/02/09 04:14:16;;;;;;;0.20;0.20;;;-0.50;99.90;;;;;;5034271;28;20030;-68
2023/02/09 04:16:41;;;;;;;1.30;1.20;;;-0.50;99.90;;;;;;5034070;28;20017;-68
2023/02/09 04:19:08;;;;;;;4.57;1.48;;;-0.50;99.90;;;;;;5034080;28;20027;-68
2023/02/09 04:21:35;;;;;;;0.40;0.40;;;-0.50;99.90;;;;;;5034157;28;20013;-68
2023/02/09 04:24:01;;;;;;;0.98;0.98;;;-0.50;99.90;;;;;;5034081;28;20040;-68
2023/02/09 04:26:26;;;;;;;0.30;0.30;;;-0.50;99.90;;;;;;5030420;28;20394;-68
2023/02/09 04:28:52;;;;;;;3.03;1.10;;;-0.50;99.90;;;;;;5033547;28;20021;-67
2023/02/09 04:31:18;;;;;;;0.30;0.30;;;-0.50;99.90;;;;;;5033728;28;20550;-68
2023/02/09 04:33:43;;;;;;;0.55;0.55;;;-0.50;99.90;;;;;;5033210;28;20068;-68
2023/02/09 04:36:09;;;;;;;1.02;1.02;;;-0.50;99.90;;;;;;5033712;28;20026;-68
2023/02/09 04:38:35;;;;;;;0.25;0.25;;;-0.50;99.90;;;;;;5033749;28;20025;-68
2023/02/09 04:41:02;;;;;;;1.85;1.23;;;-0.50;99.90;;;;;;5033688;28;20033;-68
2023/02/09 04:43:28;;;;;;;3.30;2.50;;;-0.60;99.90;;;;;;5033002;28;20072;-68
2023/02/09 04:45:53;;;;;;;0.88;0.88;;;-0.60;99.90;;;;;;5033619;28;20053;-68
2023/02/09 04:48:21;;;;;;;4.18;1.95;;;-0.60;99.90;;;;;;5033448;28;20550;-68
2023/02/09 04:50:47;;;;;;;2.70;1.58;;;-0.60;99.90;;;;;;5024458;28;20059;-68
2023/02/09 04:53:13;;;;;;;2.13;1.25;;;-0.60;99.90;;;;;;5017390;28;20065;-68
2023/02/09 04:55:40;;;;;;;3.33;3.13;;;-0.50;99.90;;;;;;5028976;28;20029;-68
2023/02/09 05:00:49;;;;;;;1.05;1.05;;;-0.50;99.90;;;;;;5033440;28;20043;-68
2023/02/09 05:03:15;;;;;;;2.75;1.80;;;-0.50;99.90;;;;;;5033433;28;20530;-68
2023/02/09 05:05:41;;;;;;;9.10;1.98;;;-0.50;99.90;;;;;;5033450;28;20040;-68
2023/02/09 05:08:07;;;;;;;0.70;0.70;;;-0.50;99.90;;;;;;5033203;28;20026;-68
2023/02/09 05:10:33;;;;;;;8.43;2.80;;;-0.40;99.90;;;;;;5033217;28;20065;-68
2023/02/09 05:12:59;;;;;;;0.65;0.63;;;-0.40;99.90;;;;;;5033228;28;20032;-68
2023/02/09 05:15:25;;;;;;;0.47;0.47;;;-0.40;99.90;;;;;;5033463;28;20029;-68
2023/02/09 05:17:50;;;;;;;10.05;3.22;;;-0.40;99.90;;;;;;5033235;28;20029;-68
2023/02/09 05:20:16;;;;;;;1.40;0.68;;;-0.40;99.90;;;;;;5033283;28;20379;-68
2023/02/09 05:22:41;;;;;;;1.42;1.27;;;-0.40;99.90;;;;;;5032874;28;20057;-68
2023/02/09 05:25:07;;;;;;;2.10;1.00;;;-0.40;99.90;;;;;;5033037;28;20025;-68
2023/02/09 05:27:33;;;;;;;8.30;3.30;;;-0.20;99.90;;;;;;5033198;28;20101;-68
2023/02/09 05:29:58;;;;;;;0.40;0.30;;;-0.10;99.90;;;;;;5033333;28;20491;-68
2023/02/09 05:32:24;;;;;;;3.65;1.65;;;0.00;99.90;;;;;;5032860;28;20083;-68
2023/02/09 05:34:49;;;;;;;9.75;2.95;;;0.10;99.90;;;;;;5033090;28;20114;-68
2023/02/09 05:37:15;;;;;;;3.58;1.88;;;0.10;99.90;;;;;;5033044;28;20018;-68
2023/02/09 05:39:40;;;;;;;8.77;1.67;;;0.10;99.90;;;;;;5032884;28;20035;-68
2023/02/09 05:42:15;;;;;;;0.22;0.22;;;0.10;99.90;;;;;;5032499;28;20040;-68
2023/02/09 05:44:45;;;;;;;2.53;1.83;;;0.10;99.90;;;;;;5019580;28;20399;-68
2023/02/09 05:47:12;;;;;;;1.38;1.10;;;0.10;99.90;;;;;;5033299;28;20033;-68
2023/02/09 05:49:38;;;;;;;0.50;0.43;;;0.10;99.90;;;;;;5032564;28;20083;-68
2023/02/09 05:52:04;;;;;;;0.60;0.50;;;0.20;99.90;;;;;;5032875;28;20391;-68
2023/02/09 05:54:29;;;;;;;0.47;0.47;;;0.30;99.90;;;;;;5034330;28;20021;-68
2023/02/09 05:56:55;;;;;;;8.88;3.80;;;0.30;99.90;;;;;;5035258;28;20112;-68
2023/02/09 05:59:20;;;;;;;1.75;1.65;;;0.50;99.90;;;;;;5036546;28;20458;-68
2023/02/09 06:01:46;;;;;;;0.47;0.47;;;0.50;99.90;;;;;;5036651;28;20032;-68
2023/02/09 06:04:11;;;;;;;2.05;1.02;;;0.60;99.90;;;;;;5036684;28;20025;-68
2023/02/09 06:06:37;;;;;;;1.30;1.13;;;0.60;99.90;;;;;;5036522;28;20487;-68
2023/02/09 06:09:03;;;;;;;2.28;1.67;;;0.60;99.90;;;;;;5036453;28;20025;-68
2023/02/09 06:11:29;;;;;;;0.70;0.70;;;0.60;99.90;;;;;;5036632;28;20092;-68
2023/02/09 06:13:54;;;;;;;0.52;0.52;;;0.60;99.90;;;;;;5036221;28;20045;-68
2023/02/09 06:16:20;;;;;;;0.20;0.20;;;0.70;99.90;;;;;;5036442;28;20422;-68
2023/02/09 06:18:45;;;;;;;0.20;0.20;;;0.70;99.90;;;;;;5036220;28;20383;-68
2023/02/09 06:21:11;;;;;;;0.55;0.50;;;0.60;99.90;;;;;;5036186;28;20028;-68
2023/02/09 06:23:37;;;;;;;1.17;0.82;;;0.60;99.90;;;;;;5036223;28;20395;-68
2023/02/09 06:26:08;;;;;;;0.60;0.60;;;0.50;99.90;;;;;;5033471;28;20033;-68
2023/02/09 06:28:33;;;;;;;2.20;1.05;;;0.50;99.90;;;;;;5035908;28;20029;-68
2023/02/09 06:30:59;;;;;;;0.68;0.68;;;0.50;99.90;;;;;;5034457;28;20037;-69
2023/02/09 06:33:25;;;;;;;6.28;2.78;;;0.60;99.90;;;;;;5036039;28;20071;-68
2023/02/09 06:35:50;;;;;;;1.70;1.60;;;0.60;99.90;;;;;;5036058;28;20072;-68
2023/02/09 06:38:16;;;;;;;0.30;0.30;;;0.60;99.90;;;;;;5023560;28;20382;-68
2023/02/09 06:40:41;;;;;;;0.40;0.40;;;0.50;99.90;;;;;;5016183;28;20503;-68
2023/02/09 06:43:07;;;;;;;0.52;0.52;;;0.50;99.90;;;;;;5031912;28;20033;-68
2023/02/09 06:45:33;;;;;;;2.28;1.20;;;0.60;99.90;;;;;;5035807;28;20033;-68
2023/02/09 06:47:58;;;;;;;0.30;0.30;;;0.60;99.90;;;;;;5035582;28;20459;-68
2023/02/09 06:50:24;;;;;;;1.55;0.85;;;0.60;99.90;;;;;;5035739;28;20029;-68
2023/02/09 06:52:49;;;;;;;0.40;0.40;;;0.50;99.90;;;;;;5035800;28;20483;-68
2023/02/09 06:55:15;;;;;;;0.47;0.47;;;0.50;99.90;;;;;;5036037;28;20486;-68
2023/02/09 06:57:40;;;;;;;0.95;0.95;;;0.50;99.90;;;;;;5034768;28;20109;-68
2023/02/09 07:00:08;;;;;;;0.43;0.43;;;0.40;99.90;;;;;;5034017;28;20119;-68
2023/02/09 07:02:34;;;;;;;4.65;2.53;;;0.40;99.90;;;;;;5035516;28;20060;-68
2023/02/09 07:04:59;;;;;;;0.80;0.60;;;0.40;99.90;;;;;;5035078;28;20040;-68
2023/02/09 07:07:25;;;;;;;2.55;2.45;;;0.40;99.90;;;;;;5034798;28;20105;-68
2023/02/09 07:09:51;;;;;;;0.50;0.50;;;0.40;99.90;;;;;;5035399;28;20029;-68
2023/02/09 07:12:17;;;;;;;3.65;3.35;;;0.40;99.90;;;;;;5035251;28;20025;-68
2023/02/09 07:14:42;;;;;;;39.08;5.68;;;0.40;99.90;;;;;;5034155;28;20052;-68
2023/02/09 07:17:08;;;;;;;1.08;0.98;;;0.40;99.90;;;;;;5035323;28;20021;-68
2023/02/09 07:19:33;;;;;;;0.38;0.35;;;0.40;99.90;;;;;;5035211;28;20030;-68
2023/02/09 07:21:59;;;;;;;0.75;0.75;;;0.40;99.90;;;;;;5034850;28;20041;-68
2023/02/09 07:24:24;;;;;;;0.63;0.63;;;0.30;99.90;;;;;;5035172;28;20029;-68
2023/02/09 07:26:50;;;;;;;0.80;0.80;;;0.30;99.90;;;;;;5035240;28;20083;-68
2023/02/09 07:29:16;;;;;;;0.98;0.73;;;0.30;99.90;;;;;;5035323;28;20040;-68
2023/02/09 07:31:42;;;;;;;2.92;1.25;;;0.20;99.90;;;;;;5034974;28;20025;-68
2023/02/09 07:34:07;;;;;;;1.85;1.45;;;0.20;99.90;;;;;;5035051;28;20032;-68
2023/02/09 07:36:33;;;;;;;3.53;2.28;;;0.20;99.90;;;;;;5034694;28;20049;-68
2023/02/09 07:38:58;;;;;;;1.55;1.27;;;0.30;99.90;;;;;;5034662;28;20467;-68
2023/02/09 07:41:25;;;;;;;3.67;1.48;;;0.30;99.90;;;;;;5034873;28;20017;-68
2023/02/09 07:43:51;;;;;;;1.48;1.38;;;0.40;99.90;;;;;;5034859;28;20025;-68
2023/02/09 07:46:20;;;;;;;0.70;0.65;;;0.40;99.90;;;;;;5034666;28;20031;-68
2023/02/09 07:48:46;;;;;;;1.17;1.08;;;0.50;99.90;;;;;;5034869;28;20372;-68
2023/02/09 07:51:24;;;;;;;1.52;1.27;;;0.60;99.90;;;;;;5034909;28;20403;-68
2023/02/09 07:53:52;;;;;;;10.48;2.60;;;0.60;99.90;;;;;;5034879;28;20021;-68
2023/02/09 07:56:18;;;;;;;1.55;1.35;;;0.60;99.90;;;;;;5034436;28;20022;-68
2023/02/09 07:58:44;;;;;;;5.05;2.90;;;0.50;99.90;;;;;;5034387;28;20429;-68
2023/02/09 08:01:11;;;;;;;1.90;1.73;;;0.50;99.90;;;;;;5034464;28;20025;-68
2023/02/09 08:03:39;;;;;;;1.58;1.42;;;0.60;99.90;;;;;;5034515;28;20040;-68
2023/02/09 08:06:17;;;;;;;0.25;0.25;;;0.60;99.90;;;;;;5034367;28;20022;-68
2023/02/09 08:08:46;;;;;;;3.13;1.88;;;0.70;99.90;;;;;;5034505;28;20509;-67
2023/02/09 08:11:13;;;;;;;12.38;11.18;;;0.70;99.90;;;;;;5034559;28;20108;-67
2023/02/09 08:13:40;;;;;;;0.10;0.10;;;0.80;99.90;;;;;;5034009;28;20068;-67
2023/02/09 08:16:10;;;;;;;4.90;2.67;;;0.80;99.90;;;;;;5034498;28;20432;-67
2023/02/09 08:18:40;;;;;;;7.45;3.53;;;0.80;99.90;;;;;;5033092;28;20032;-67
2023/02/09 08:21:10;;;;;;;0.10;0.10;;;0.90;99.90;;;;;;5034396;28;20021;-67
2023/02/09 08:23:38;;;;;;;1.25;1.15;;;0.90;99.90;;;;;;5034037;28;20032;-67
2023/02/09 08:26:10;;;;;;;6.00;2.20;;;0.90;99.90;;;;;;5034043;28;20475;-67
2023/02/09 08:28:37;;;;;;;1.95;0.95;;;1.00;99.90;;;;;;5033914;28;20040;-67
2023/02/09 08:31:03;;;;;;;0.20;0.20;;;1.00;99.90;;;;;;5033802;28;20029;-67
2023/02/09 08:33:28;;;;;;;1.20;1.10;;;1.00;99.90;;;;;;5034124;28;20029;-68
2023/02/09 08:35:54;;;;;;;0.30;0.30;;;1.10;99.90;;;;;;5033961;28;20053;-68
2023/02/09 08:38:20;;;;;;;7.63;2.25;;;1.10;99.90;;;;;;5033992;28;20029;-68
2023/02/09 08:40:45;;;;;;;0.20;0.20;;;1.10;99.90;;;;;;5034115;28;20027;-68
2023/02/09 08:43:12;;;;;;;0.30;0.30;;;1.10;99.90;;;;;;5033754;28;20037;-68
2023/02/09 08:45:39;;;;;;;1.00;1.00;;;1.10;99.90;;;;;;5033710;28;20040;-68
2023/02/09 08:48:05;;;;;;;0.40;0.40;;;1.20;99.90;;;;;;5033402;28;20029;-68
2023/02/09 08:50:32;;;;;;;0.45;0.45;;;1.20;99.90;;;;;;5033620;28;20021;-68
2023/02/09 08:52:58;;;;;;;1.58;1.20;;;1.30;99.90;;;;;;5033578;28;20029;-68
2023/02/09 08:55:24;;;;;;;0.45;0.45;;;1.30;99.90;;;;;;5033634;28;20018;-68
2023/02/09 08:57:49;;;;;;;1.55;0.82;;;1.30;99.90;;;;;;5033423;28;20076;-68
2023/02/09 09:00:15;;;;;;;0.30;0.30;;;1.40;99.90;;;;;;5106887;22;20124;-73
2023/02/09 09:02:41;;;;;;;2.95;1.38;;;1.50;99.90;;;;;;5032224;28;20030;-73
2023/02/09 09:05:06;;;;;;;0.40;0.40;;;1.50;99.90;;;;;;5032976;28;20045;-73
2023/02/09 09:07:32;;;;;;;2.65;1.65;;;1.50;99.90;;;;;;5034028;28;20030;-73
2023/02/09 09:09:57;;;;;;;0.55;0.55;;;1.70;99.90;;;;;;5023477;28;20037;-73
2023/02/09 09:12:23;;;;;;;5.57;0.95;;;1.70;99.90;;;;;;5029028;28;20078;-73
2023/02/09 09:14:48;;;;;;;0.20;0.20;;;1.70;99.90;;;;;;5033231;28;20028;-74
2023/02/09 09:17:14;;;;;;;1.33;1.27;;;1.90;99.90;;;;;;5032834;28;20021;-73
2023/02/09 09:19:40;;;;;;;0.80;0.70;;;1.90;99.90;;;;;;5033811;28;20448;-72
2023/02/09 09:22:05;;;;;;;1.45;1.35;;;1.90;99.90;;;;;;5032723;28;20033;-72
2023/02/09 09:24:31;;;;;;;0.43;0.43;;;2.00;99.90;;;;;;5032806;28;20022;-72
2023/02/09 09:26:57;;;;;;;0.30;0.30;;;2.00;99.90;;;;;;5033166;28;20040;-72
2023/02/09 09:29:23;;;;;;;0.45;0.45;;;2.00;99.90;;;;;;5034668;28;20025;-72
2023/02/09 09:31:49;;;;;;;1.98;1.65;;;2.10;99.90;;;;;;5037190;28;20021;-73
2023/02/09 09:34:14;;;;;;;0.82;0.80;;;2.20;99.90;;;;;;5037115;28;20067;-72
2023/02/09 09:36:40;;;;;;;0.85;0.85;;;2.20;99.90;;;;;;5019539;28;20029;-72
2023/02/09 09:39:05;;;;;;;1.38;0.73;;;2.30;99.90;;;;;;5019251;28;20538;-73
2023/02/09 09:41:36;;;;;;;1.92;1.38;;;2.30;99.90;;;;;;5037427;28;20036;-72
2023/02/09 09:44:28;;;;;;;32.35;5.57;;;2.30;99.90;;;;;;5019335;28;20032;-72
2023/02/09 09:46:59;;;;;;;0.38;0.38;;;2.30;99.90;;;;;;5003311;28;20077;-73
2023/02/09 09:49:30;;;;;;;1.48;1.02;;;2.40;99.90;;;;;;5017178;28;20101;-73
2023/02/09 09:52:04;;;;;;;0.73;0.73;;;2.40;99.90;;;;;;5024790;28;20558;-73
2023/02/09 09:54:30;;;;;;;;;;;2.40;99.90;;;;;;5018177;28;20113;-72
2023/02/09 09:56:56;;;;;;;0.82;0.82;;;2.40;99.90;;;;;;5035514;28;19959;-73
2023/02/09 09:59:29;;;;;;;2.88;0.95;;;2.50;99.90;;;;;;5036778;28;20057;-73
2023/02/09 10:01:56;;;;;;;1.20;1.20;;;2.50;99.90;;;;;;5032483;28;20030;-73
2023/02/09 10:04:21;;;;;;;21.02;4.82;;;2.50;99.90;;;;;;4999281;28;20483;-73
2023/02/09 10:06:57;;;;;;;0.38;0.38;;;2.50;99.90;;;;;;5035037;28;20104;-73
2023/02/09 10:09:43;;;;;;;3.15;1.55;;;2.60;99.90;;;;;;5036953;28;20094;-73
2023/02/09 10:12:20;;;;;;;4.78;1.83;;;2.60;99.90;;;;;;5036294;28;20056;-73
2023/02/09 10:14:45;;;;;;;0.20;0.20;;;2.60;99.90;;;;;;5036523;28;20076;-73
2023/02/09 10:17:11;;;;;;;2.05;0.93;;;2.60;99.90;;;;;;5036213;28;20025;-73
2023/02/09 10:19:36;;;;;;;0.43;0.25;;;2.70;99.90;;;;;;5036546;28;20059;-72
2023/02/09 10:22:03;;;;;;;3.50;1.73;;;2.80;99.90;;;;;;5036232;28;20479;-73
2023/02/09 10:24:31;;;;;;;0.20;0.20;;;2.80;99.90;;;;;;5036347;28;20032;-73
2023/02/09 10:27:07;;;;;;;6.53;2.97;;;2.90;99.90;;;;;;5034791;28;20116;-73
2023/02/09 10:29:34;;;;;;;0.52;0.38;;;3.00;99.90;;;;;;5035852;28;20029;-73
2023/02/09 10:32:24;;;;;;;0.65;0.65;;;3.00;99.90;;;;;;5035813;28;20395;-73
2023/02/09 10:34:51;;;;;;;1.17;1.08;;;3.00;99.90;;;;;;5035147;28;20387;-73
2023/02/09 10:37:34;;;;;;;5.30;3.25;;;3.00;99.90;;;;;;5036418;28;20520;-73
2023/02/09 10:40:21;;;;;;;1.05;0.75;;;3.10;99.90;;;;;;5035789;28;20395;-73
2023/02/09 10:43:05;;;;;;;0.50;0.50;;;3.10;99.90;;;;;;5035373;28;20495;-73
2023/02/09 10:45:35;;;;;;;1.20;0.95;;;3.20;99.90;;;;;;5018253;28;20483;-73
2023/02/09 10:48:15;;;;;;;6.45;2.25;;;3.20;99.90;;;;;;5035827;28;20483;-72
2023/02/09 10:51:05;;;;;;;3.90;2.38;;;3.30;99.90;;;;;;5036399;28;20033;-73
2023/02/09 10:53:38;;;;;;;0.60;0.60;;;3.20;99.90;;;;;;5035875;28;20029;-73
2023/02/09 10:56:14;;;;;;;3.90;2.53;;;3.30;99.90;;;;;;5035893;28;20076;-73
2023/02/09 10:58:40;;;;;;;1.85;1.05;;;3.30;99.90;;;;;;5035491;28;20115;-73
2023/02/09 11:01:08;;;;;;;5.72;2.28;;;3.30;99.90;;;;;;5035776;28;20475;-73
2023/02/09 11:03:35;;;;;;;18.73;3.85;;;3.30;99.90;;;;;;5035695;28;20033;-73
2023/02/09 11:06:08;;;;;;;0.82;0.63;;;3.30;99.90;;;;;;5035412;28;20487;-73
2023/02/09 11:08:41;;;;;;;0.20;0.20;;;3.30;99.90;;;;;;5035525;28;20033;-73
2023/02/09 11:11:34;;;;;;;1.45;1.35;;;3.30;99.90;;;;;;5035921;28;20491;-73
2023/02/09 11:13:59;;;;;;;5.90;3.70;;;3.30;99.90;;;;;;5035211;28;20033;-74
2023/02/09 11:16:32;;;;;;;0.95;0.95;;;3.30;99.90;;;;;;5035524;28;20022;-73
2023/02/09 11:19:03;;;;;;;0.70;0.63;;;3.30;99.90;;;;;;5035032;28;20025;-74
2023/02/09 11:21:42;;;;;;;6.88;5.15;;;3.40;99.90;;;;;;5028998;28;20018;-74
2023/02/09 11:24:38;;;;;;;0.40;0.40;;;3.40;99.90;;;;;;5029193;28;20041;-74
2023/02/09 11:27:37;;;;;;;1.90;1.77;;;3.40;99.90;;;;;;5025769;28;20547;-74
2023/02/09 11:30:29;;;;;;;0.43;0.32;;;3.40;99.90;;;;;;5026081;28;20056;-74
2023/02/09 11:33:00;;;;;;;5.20;1.58;;;3.40;99.90;;;;;;5024091;28;20376;-74
2023/02/09 11:35:41;;;;;;;4.82;2.65;;;3.50;99.90;;;;;;5033940;28;20075;-74
2023/02/09 11:38:38;;;;;;;7.32;1.00;;;3.50;99.90;;;;;;5023781;28;20454;-74
2023/02/09 11:42:42;;;;;;;1.75;1.05;;;3.50;99.90;;;;;;5019950;28;20119;-74
2023/02/09 11:44:01;;;;;;;10.25;4.40;;;3.50;99.90;;;;;;5030425;28;20036;-74
2023/02/09 11:46:30;;;;;;;12.50;5.10;;;3.60;99.90;;;;;;5029873;28;20029;-74
2023/02/09 11:49:20;;;;;;;0.30;0.30;;;3.60;99.90;;;;;;5031551;28;20033;-74
2023/02/09 11:51:48;;;;;;;9.85;2.05;;;3.50;99.90;;;;;;5030825;28;20029;-74
2023/02/09 11:54:21;;;;;;;0.30;0.30;;;3.50;99.90;;;;;;5027565;28;20484;-74
2023/02/09 11:56:48;;;;;;;;;;;3.50;99.90;;;;;;5023860;28;20484;-75
2023/02/09 11:59:26;;;;;;;1.60;1.35;;;3.50;99.90;;;;;;5016296;28;19917;-74
2023/02/09 12:02:26;;;;;;;2.10;1.95;;;3.50;99.90;;;;;;5014185;28;20025;-74
2023/02/09 12:04:59;;;;;;;2.42;2.22;;;3.50;99.90;;;;;;5026101;28;20030;-73
2023/02/09 12:07:43;;;;;;;2.58;2.22;;;3.60;99.90;;;;;;5033018;28;20479;-73
2023/02/09 12:10:30;;;;;;;;;;;3.60;99.90;;;;;;5033996;28;20061;-73
2023/02/09 12:13:26;;;;;;;12.73;5.15;;;3.60;99.90;;;;;;5034096;28;20367;-73
2023/02/09 12:16:00;;;;;;;12.32;2.83;;;3.70;99.90;;;;;;5024054;28;20475;-73
2023/02/09 12:18:29;;;;;;;1.25;1.15;;;3.70;99.90;;;;;;5033987;28;20120;-73
2023/02/09 12:21:00;;;;;;;8.15;4.30;;;3.70;99.90;;;;;;5022876;28;20018;-73
2023/02/09 12:23:36;;;;;;;13.23;3.00;;;3.70;99.90;;;;;;5032807;28;20558;-72
2023/02/09 12:26:10;;;;;;;1.80;1.15;;;3.70;99.90;;;;;;5033916;28;20398;-73
2023/02/09 12:28:45;;;;;;;11.35;5.38;;;3.70;99.90;;;;;;5021872;28;20071;-72
2023/02/09 12:31:11;;;;;;;3.28;2.50;;;3.70;99.90;;;;;;5031943;28;20034;-72
2023/02/09 12:33:56;;;;;;;12.27;4.68;;;3.70;99.90;;;;;;5014235;28;20037;-72
2023/02/09 12:36:22;;;;;;;23.65;4.63;;;3.70;99.90;;;;;;5014311;28;20021;-73
2023/02/09 12:38:56;;;;;;;14.32;5.90;;;3.70;99.90;;;;;;5033970;28;20071;-73
2023/02/09 12:41:34;;;;;;;48.65;6.95;;;3.70;99.90;;;;;;5048857;28;20022;-73
2023/02/09 12:44:20;;;;;;;1.85;1.30;;;3.60;99.90;;;;;;5033652;28;20044;-73
2023/02/09 12:46:56;;;;;;;1.52;1.42;;;3.60;99.90;;;;;;4983437;28;20038;-73
2023/02/09 12:49:28;;;;;;;19.35;7.50;;;3.60;99.90;;;;;;5033586;28;20028;-73
2023/02/09 12:51:59;;;;;;;11.10;5.07;;;3.70;99.90;;;;;;5033487;28;20502;-73
2023/02/09 12:54:37;;;;;;;9.27;4.75;;;3.70;99.90;;;;;;5033232;28;20152;-72
2023/02/09 12:57:15;;;;;;;5.95;2.00;;;3.70;99.90;;;;;;5033584;28;20029;-72
2023/02/09 12:59:49;;;;;;;4.85;2.38;;;3.80;99.90;;;;;;5032766;28;20036;-72
2023/02/09 13:02:30;;;;;;;5.65;2.95;;;3.80;99.90;;;;;;5033805;28;20064;-71
2023/02/09 13:05:03;;;;;;;5.38;2.38;;;3.70;99.90;;;;;;5032966;28;20454;-71
2023/02/09 13:07:31;;;;;;;3.22;2.92;;;3.70;99.90;;;;;;5032927;28;20425;-71
2023/02/09 13:10:02;;;;;;;7.70;3.22;;;3.70;99.90;;;;;;5033297;28;20399;-71
2023/02/09 13:12:41;;;;;;;8.70;3.85;;;3.70;99.90;;;;;;5015100;28;20030;-71
2023/02/09 13:15:15;;;;;;;3.15;2.05;;;3.70;99.90;;;;;;5033507;28;20017;-70